Terminal Aerodrome Forecast
Issued by NWS

Home | Current Version | Previous Version | Text Only | Print | Product List | Glossary On
Versions: 1 2 3 4 5 6 7 8 9 10 11 12 13 14 15
000
FTUS43 KFGF 242300
TAFBJI
TAF
KBJI 242321Z 2500/2524 03004KT P6SM OVC018
     FM250900 04003KT P6SM BKN250
     FM251500 14003KT P6SM SKC=

USA.gov is the U.S. government's official web portal to all federal, state and local government web resources and services.